Lowber, Pennsylvania
Current Conditions -  °F | °C
As of 4:53 AM on Sunday 26 Oct 2014 (Local Time) from KAGC Reporting Station
Clear Clear  
Wind Chill: 44°   Ceiling: Unl
Heat Index: 49°   Visibility: 10mi
Dew Point: 29°   Wind: 12mph
Humidity: 46%   Direction: 260°W
Pressure: 29.8"   Gusts: NA
Location:  40.24°N, 79.77°W
Report Text: KAGC 260853Z AUTO 26010KT 10SM CLR 09/M02 A2980 RMK AO2 SLP095 T00941017 53005 TSNO
Loading
Personal Weather Stations






























Interactive Weather Map
Tropical Storm Tracking
New forecast layout! Learn more

10-Day Weather Forecast

Advertisements
Track Severe Weather on mobile